Time;durP1;ratioP1;P1;durP2;ratioP2;P2;SDS_P1;SDS_P2;PMS_P1;PMS_P2;Temp;Humidity;BMP_temperature;BMP_pressure;BME280_temperature;BME280_humidity;BME280_pressure;Samples;Min_cycle;Max_cycle;Signal;HPM_P1;HPM_P2
2022/03/18 00:08:46;;;;;;;1.25;0.32;;;10.70;57.80;;;;;;20673693;28;20477;-61
2022/03/18 00:18:48;;;;;;;3.60;0.57;;;10.70;58.10;;;;;;20671716;28;20402;-62
2022/03/18 00:28:49;;;;;;;2.25;0.30;;;10.70;58.20;;;;;;20671167;28;20133;-60
2022/03/18 00:38:51;;;;;;;2.40;0.32;;;10.70;58.50;;;;;;20670747;28;20054;-62
2022/03/18 00:59:13;;;;;;;52.83;18.25;;;10.70;59.00;;;;;;20672021;28;20538;-61
2022/03/18 01:09:16;;;;;;;1.13;0.30;;;10.70;58.90;;;;;;20672099;28;20487;-63
2022/03/18 01:19:18;;;;;;;61.30;22.20;;;10.70;58.80;;;;;;20668477;28;20498;-60
2022/03/18 01:29:20;;;;;;;65.05;28.75;;;10.70;58.80;;;;;;20666993;28;20053;-61
2022/03/18 01:39:22;;;;;;;1.88;0.30;;;10.80;58.60;;;;;;20667099;28;20050;-59
2022/03/18 01:49:24;;;;;;;13.55;0.85;;;10.90;58.60;;;;;;20664523;28;20462;-62
2022/03/18 01:59:25;;;;;;;1.27;0.45;;;10.80;58.70;;;;;;20666592;28;20057;-60
2022/03/18 02:09:27;;;;;;;4.95;0.50;;;10.70;59.00;;;;;;20665801;28;20418;-61
2022/03/18 02:19:30;;;;;;;1.70;0.22;;;10.70;59.20;;;;;;20665210;28;20062;-62
2022/03/18 02:29:33;;;;;;;1.55;0.25;;;10.60;59.40;;;;;;20665789;28;20054;-62
2022/03/18 02:39:39;;;;;;;0.47;0.32;;;10.60;59.40;;;;;;20672312;28;20142;-62
2022/03/18 02:49:43;;;;;;;0.30;0.20;;;10.50;59.70;;;;;;20678792;28;20046;-59
2022/03/18 02:59:47;;;;;;;2.28;0.28;;;10.40;59.90;;;;;;20678793;28;20057;-61
2022/03/18 03:09:50;;;;;;;0.82;0.30;;;10.30;60.00;;;;;;20677669;28;20064;-61
2022/03/18 03:20:12;;;;;;;2.10;0.40;;;10.30;60.30;;;;;;20676403;28;20050;-61
2022/03/18 03:30:20;;;;;;;1.30;0.30;;;10.20;60.70;;;;;;20676158;28;20201;-61
2022/03/18 03:40:26;;;;;;;3.53;0.70;;;10.10;61.20;;;;;;20675574;28;20129;-61
2022/03/18 03:50:30;;;;;;;0.63;0.17;;;10.20;61.10;;;;;;20674080;28;20058;-61
2022/03/18 04:00:36;;;;;;;0.93;0.22;;;10.10;61.40;;;;;;20673435;28;20072;-63
2022/03/18 04:10:42;;;;;;;0.93;0.20;;;10.00;61.70;;;;;;20672698;28;20096;-59
2022/03/18 04:20:49;;;;;;;0.65;0.20;;;10.00;61.80;;;;;;20671720;28;20086;-61
2022/03/18 04:30:54;;;;;;;0.90;0.30;;;10.00;61.90;;;;;;20671062;28;20054;-58
2022/03/18 04:41:15;;;;;;;1.40;0.28;;;10.00;62.10;;;;;;20670988;28;20046;-59
2022/03/18 04:51:19;;;;;;;30.05;9.50;;;9.80;62.70;;;;;;20670077;28;20054;-61
2022/03/18 05:01:22;;;;;;;2.53;0.47;;;9.80;62.60;;;;;;20668085;28;20047;-60
2022/03/18 05:11:24;;;;;;;4.40;0.50;;;9.90;62.60;;;;;;20668427;28;20472;-62
2022/03/18 05:21:28;;;;;;;1.30;0.47;;;9.80;62.60;;;;;;20668152;28;20141;-61
2022/03/18 05:31:32;;;;;;;1.95;0.32;;;9.70;63.10;;;;;;20667488;28;20080;-59
2022/03/18 05:41:34;;;;;;;2.30;0.30;;;9.70;63.60;;;;;;20667549;28;20050;-62
2022/03/18 05:51:36;;;;;;;1.10;0.50;;;9.60;63.80;;;;;;20668738;28;20110;-60
2022/03/18 06:01:38;;;;;;;2.08;0.52;;;9.40;64.50;;;;;;20667511;28;20097;-60
2022/03/18 06:11:49;;;;;;;1.08;0.38;;;9.50;64.50;;;;;;20670254;28;20062;-61
2022/03/18 06:21:51;;;;;;;3.30;0.95;;;9.40;64.70;;;;;;20682526;28;20495;-62
2022/03/18 06:31:53;;;;;;;0.95;0.65;;;9.50;64.50;;;;;;20682291;28;20093;-61
2022/03/18 06:41:56;;;;;;;2.70;1.10;;;9.50;64.70;;;;;;20681361;28;20046;-61
2022/03/18 06:51:59;;;;;;;1.58;0.80;;;9.50;64.70;;;;;;20682908;28;20057;-59
2022/03/18 07:02:02;;;;;;;1.60;0.50;;;9.60;64.60;;;;;;20680900;28;20451;-61
2022/03/18 07:12:04;;;;;;;2.75;0.65;;;9.70;64.30;;;;;;20676082;28;20502;-60
2022/03/18 07:22:06;;;;;;;3.75;0.90;;;9.80;64.20;;;;;;20675928;28;20061;-60
2022/03/18 07:32:09;;;;;;;5.03;0.70;;;9.80;64.00;;;;;;20676225;28;20073;-60
2022/03/18 07:42:13;;;;;;;2.05;0.70;;;9.90;63.80;;;;;;20673984;28;20116;-58
2022/03/18 07:52:14;;;;;;;5.05;2.28;;;10.10;63.40;;;;;;20673455;28;20054;-56
2022/03/18 08:02:15;;;;;;;6.05;1.25;;;10.20;63.10;;;;;;20674523;28;20050;-57
2022/03/18 08:12:17;;;;;;;4.13;0.98;;;10.30;63.00;;;;;;20673839;28;20089;-59
2022/03/18 08:22:21;;;;;;;7.10;1.27;;;10.30;62.80;;;;;;20671948;28;20137;-62
2022/03/18 08:32:24;;;;;;;1.35;0.68;;;10.30;62.80;;;;;;20672150;28;20053;-62
2022/03/18 08:42:25;;;;;;;4.18;0.88;;;10.40;62.80;;;;;;20669160;28;20057;-59
2022/03/18 08:52:27;;;;;;;4.05;1.15;;;10.40;62.80;;;;;;20671022;28;20102;-60
2022/03/18 09:02:28;;;;;;;3.83;0.80;;;10.50;62.70;;;;;;20668358;28;20080;-62
2022/03/18 09:12:30;;;;;;;3.75;0.73;;;10.60;62.30;;;;;;20668128;28;20065;-56
2022/03/18 09:22:32;;;;;;;5.40;1.25;;;10.90;61.80;;;;;;20668413;28;20138;-60
2022/03/18 09:32:34;;;;;;;6.60;1.05;;;10.90;61.70;;;;;;20667394;28;20050;-57
2022/03/18 09:42:56;;;;;;;3.38;1.30;;;11.10;61.30;;;;;;20669117;28;20415;-57
2022/03/18 09:52:58;;;;;;;3.38;0.65;;;11.30;60.90;;;;;;20665339;28;20096;-59
2022/03/18 10:03:08;;;;;;;3.78;0.77;;;11.60;60.40;;;;;;20666245;28;20046;-73
2022/03/18 10:13:09;;;;;;;168.13;18.92;;;11.60;60.50;;;;;;20665943;28;20144;-60
2022/03/18 10:23:24;;;;;;;3.90;1.40;;;12.00;60.00;;;;;;20664268;28;20133;-60
2022/03/18 10:44:09;;;;;;;79.78;9.77;;;13.00;57.60;;;;;;20495308;28;20051;-62
2022/03/18 10:54:11;;;;;;;29.52;8.27;;;12.80;58.20;;;;;;20493357;28;20117;-66
2022/03/18 11:04:18;;;;;;;102.38;60.88;;;13.60;56.90;;;;;;20554193;28;20047;-59
2022/03/18 11:14:21;;;;;;;2.78;1.17;;;13.40;57.40;;;;;;20538680;28;20065;-65
2022/03/18 11:24:23;;;;;;;1.58;0.40;;;13.60;57.00;;;;;;20627362;28;20050;-59
2022/03/18 11:34:25;;;;;;;2.67;0.80;;;14.30;57.30;;;;;;20677774;28;20050;-61
2022/03/18 11:44:56;;;;;;;1.60;0.95;;;14.50;55.20;;;;;;20675520;28;20376;-67
2022/03/18 11:55:07;;;;;;;3.30;0.75;;;14.50;55.10;;;;;;20674717;28;20058;-61
2022/03/18 12:05:17;;;;;;;10.55;1.48;;;14.20;55.80;;;;;;20673397;28;20153;-63
2022/03/18 12:15:22;;;;;;;5.18;1.38;;;14.00;56.20;;;;;;20673320;28;20450;-61
2022/03/18 12:25:24;;;;;;;3.42;1.20;;;14.00;56.10;;;;;;20673945;28;20056;-62
2022/03/18 12:35:35;;;;;;;1.70;1.00;;;13.80;56.30;;;;;;20671546;28;20414;-60
2022/03/18 12:45:38;;;;;;;2.83;1.33;;;14.10;56.10;;;;;;20672341;28;20513;-60
2022/03/18 12:55:43;;;;;;;2.03;0.93;;;14.00;56.10;;;;;;20669368;28;20061;-60
2022/03/18 13:05:46;;;;;;;2.33;1.17;;;14.20;55.80;;;;;;20669408;28;20411;-59
2022/03/18 13:16:00;;;;;;;6.28;1.42;;;14.60;55.10;;;;;;20667980;28;20054;-61
2022/03/18 13:26:01;;;;;;;7.18;1.48;;;14.70;55.20;;;;;;20666647;28;20061;-60
2022/03/18 13:36:03;;;;;;;2.95;1.10;;;14.90;54.60;;;;;;20667052;28;20054;-61
2022/03/18 13:46:16;;;;;;;4.50;1.83;;;15.30;53.70;;;;;;20666866;28;20174;-61
2022/03/18 13:56:19;;;;;;;3.38;1.40;;;15.70;53.00;;;;;;20666122;28;20058;-58
2022/03/18 14:06:20;;;;;;;5.40;1.63;;;15.90;51.90;;;;;;20667537;28;20090;-60
2022/03/18 14:16:21;;;;;;;3.17;1.25;;;16.40;50.80;;;;;;20669278;28;20054;-60
2022/03/18 14:26:24;;;;;;;4.45;1.73;;;16.40;50.40;;;;;;20665674;28;20069;-61
2022/03/18 14:36:25;;;;;;;4.22;1.23;;;16.40;49.40;;;;;;20673427;28;20086;-60
2022/03/18 14:46:30;;;;;;;3.42;1.10;;;16.30;49.30;;;;;;20679918;28;20047;-61
2022/03/18 14:56:31;;;;;;;4.82;1.00;;;16.50;48.70;;;;;;20684184;28;20479;-60
2022/03/18 15:06:33;;;;;;;4.70;0.93;;;16.60;48.30;;;;;;20678506;28;20505;-61
2022/03/18 15:16:34;;;;;;;5.00;1.27;;;16.40;48.60;;;;;;20677189;28;20050;-60
2022/03/18 15:26:39;;;;;;;4.30;0.82;;;16.10;49.40;;;;;;20676324;28;20154;-62
2022/03/18 15:36:41;;;;;;;4.40;1.20;;;16.10;49.30;;;;;;20676609;28;20061;-61
2022/03/18 15:46:43;;;;;;;4.15;0.90;;;16.30;48.90;;;;;;20674759;28;20526;-60
2022/03/18 15:56:45;;;;;;;2.20;1.08;;;15.90;49.20;;;;;;20675600;28;20061;-61
2022/03/18 16:06:47;;;;;;;3.85;1.10;;;16.00;49.10;;;;;;20676882;28;20046;-60
2022/03/18 16:16:48;;;;;;;2.20;0.70;;;16.10;48.70;;;;;;20674311;28;20479;-61
2022/03/18 16:27:01;;;;;;;1.83;0.70;;;16.10;48.70;;;;;;20671937;28;20054;-60
2022/03/18 16:37:03;;;;;;;2.15;1.40;;;15.90;48.80;;;;;;20669638;28;20137;-62
2022/03/18 16:57:24;;;;;;;2.72;0.93;;;15.70;48.90;;;;;;20667631;28;20050;-61
2022/03/18 17:07:26;;;;;;;2.70;1.15;;;15.70;48.90;;;;;;20667405;28;20101;-63
2022/03/18 17:17:30;;;;;;;3.47;0.80;;;15.80;48.80;;;;;;20667037;28;20442;-62
2022/03/18 17:27:32;;;;;;;2.60;0.85;;;15.60;49.00;;;;;;20681743;28;20161;-61
2022/03/18 17:37:34;;;;;;;1.95;0.93;;;15.20;49.50;;;;;;20664854;28;20050;-65
2022/03/18 17:47:39;;;;;;;2.45;0.80;;;15.00;50.00;;;;;;20666310;28;20108;-61
2022/03/18 17:57:40;;;;;;;3.42;0.57;;;15.00;50.50;;;;;;20666753;28;20055;-68
2022/03/18 18:07:42;;;;;;;2.38;1.13;;;15.00;50.40;;;;;;20667756;28;20384;-64
2022/03/18 18:17:43;;;;;;;6.60;2.78;;;14.70;51.00;;;;;;20679128;28;20050;-58
2022/03/18 18:27:45;;;;;;;2.30;1.67;;;14.60;51.20;;;;;;20678509;28;20495;-61
2022/03/18 18:37:47;;;;;;;15.10;7.45;;;14.40;51.60;;;;;;20678563;28;20050;-66
2022/03/18 18:47:49;;;;;;;5.88;1.90;;;14.30;52.00;;;;;;20676285;28;20046;-65
2022/03/18 18:57:52;;;;;;;5.65;1.60;;;14.20;52.30;;;;;;20678273;28;20080;-61
2022/03/18 19:07:54;;;;;;;3.40;1.67;;;14.20;52.40;;;;;;20676971;28;20482;-64
2022/03/18 19:17:57;;;;;;;5.07;1.85;;;14.00;53.10;;;;;;20676528;28;20514;-61
2022/03/18 19:27:58;;;;;;;8.07;2.05;;;14.00;53.70;;;;;;20676663;28;20054;-65
2022/03/18 19:38:00;;;;;;;2.40;1.50;;;14.00;53.90;;;;;;20675480;28;20474;-64
2022/03/18 19:48:03;;;;;;;14.65;3.95;;;13.80;54.30;;;;;;20674524;28;20053;-61
2022/03/18 20:08:29;;;;;;;9.60;3.03;;;14.20;54.20;;;;;;20672438;28;20054;-64
2022/03/18 20:18:32;;;;;;;10.15;4.18;;;13.70;55.30;;;;;;20672135;28;20105;-62
2022/03/18 20:28:34;;;;;;;6.97;3.03;;;13.40;55.80;;;;;;20670957;28;20055;-61
2022/03/18 20:38:36;;;;;;;7.60;2.67;;;13.40;56.10;;;;;;20671468;28;20046;-64
2022/03/18 20:48:38;;;;;;;8.50;2.92;;;13.30;56.30;;;;;;20670685;28;20042;-62
2022/03/18 20:58:40;;;;;;;11.35;3.90;;;13.20;56.80;;;;;;20670711;28;20042;-63
2022/03/18 21:08:42;;;;;;;6.65;3.03;;;13.20;57.00;;;;;;20670690;28;20109;-62
2022/03/18 21:18:44;;;;;;;6.90;2.90;;;13.20;57.00;;;;;;20668652;28;20112;-58
2022/03/18 21:39:09;;;;;;;7.30;3.13;;;13.00;57.40;;;;;;20669020;28;20066;-59
2022/03/18 21:49:13;;;;;;;7.93;3.83;;;12.90;57.70;;;;;;20668833;28;20086;-59
2022/03/18 21:59:14;;;;;;;10.25;3.25;;;12.80;58.00;;;;;;20668062;28;20487;-64
2022/03/18 22:09:16;;;;;;;8.45;3.80;;;12.70;58.30;;;;;;20666418;28;20070;-59
2022/03/18 22:19:18;;;;;;;6.40;3.67;;;12.70;58.30;;;;;;20666411;28;20050;-61
2022/03/18 22:29:21;;;;;;;9.35;3.70;;;12.70;58.50;;;;;;20665273;28;20047;-60
2022/03/18 22:39:22;;;;;;;8.27;3.75;;;12.60;58.70;;;;;;20666764;28;20442;-59
2022/03/18 22:49:25;;;;;;;10.27;3.08;;;12.50;59.00;;;;;;20664768;28;20542;-60
2022/03/18 22:59:26;;;;;;;7.10;3.67;;;12.40;59.30;;;;;;20675611;28;20457;-64
2022/03/18 23:09:28;;;;;;;6.88;3.50;;;12.30;59.60;;;;;;20677891;28;20054;-59
2022/03/18 23:19:30;;;;;;;8.38;4.05;;;12.20;59.90;;;;;;20677968;28;20058;-60
2022/03/18 23:29:33;;;;;;;7.22;3.58;;;12.20;60.10;;;;;;20676314;28;20129;-59
2022/03/18 23:39:35;;;;;;;7.03;3.25;;;12.10;60.40;;;;;;20675108;28;20054;-58
2022/03/18 23:49:37;;;;;;;10.18;4.18;;;12.00;60.60;;;;;;20675328;28;20073;-58
2022/03/18 23:59:39;;;;;;;9.95;3.33;;;11.90;60.80;;;;;;20675570;28;20050;-58
